Metsaborg — PBFL — position and weather

sailwx.info

Track history (hours):
 
Tides and Currents Weather Stations Pressure Air Temp Water Temp Dewpoint Dewpoint Depression Visibility Wind Speed Wind Dir Waves Ship Positions

Metsaborg

Last reported at 2016-Sep-11 06:19 UTC. Time now 2016-Dec-09 09:46 UTC.
Position N 55°00' E 011°55'.
Warning: this ship's position is months out of date.

Length 12 m.

Type: Port tender. MMSI: 244870551.

Date/timePositionNaut miles runAvg speedWind from/ knotsBaromVisibWave heightAir tempDewpointWater temp
2016-Sep-11 06:19N 55°00' E 011°55'  
2016-Sep-09 00:31N 55°11' E 011°38'0 0.0
2016-Sep-08 23:31N 55°11' E 011°38'0 0.0
2016-Sep-08 22:19N 55°11' E 011°38'0 0.0
2016-Sep-08 21:25N 55°11' E 011°38'13 0.9
2016-Sep-08 06:25N 54°58' E 011°31'0 0.0
2016-Sep-08 05:31N 54°58' E 011°31'0 0.0
2016-Sep-08 04:28N 54°58' E 011°31'0 0.0
2016-Sep-08 03:28N 54°58' E 011°31'0 0.0
2016-Sep-08 02:22N 54°58' E 011°31'0 0.0
2016-Sep-08 01:31N 54°58' E 011°31'0 0.0
2016-Sep-08 00:31N 54°58' E 011°31'0 0.0
2016-Sep-07 00:25N 54°58' E 011°31'0 0.0
2016-Sep-06 23:31N 54°58' E 011°31'0 0.0
2016-Sep-06 22:28N 54°58' E 011°31'0 0.0
2016-Sep-06 21:28N 54°58' E 011°31'0 0.0
2016-Sep-06 20:28N 54°58' E 011°31'0 0.0
2016-Sep-06 19:28N 54°58' E 011°31'  
2016-Sep-02 07:33N 55°27' E 012°36'9 8.7
2016-Sep-02 06:31N 55°36' E 012°41'0 0.0
2016-Sep-02 05:31N 55°36' E 012°41'0 0.0
2016-Sep-02 04:31N 55°36' E 012°41'0 0.0
2016-Sep-02 03:31N 55°36' E 012°41'0 0.0
2016-Sep-02 02:31N 55°36' E 012°41'0 0.0
2016-Sep-02 01:31N 55°36' E 012°41'0 0.0
2016-Sep-02 00:31N 55°36' E 012°41'0 0.0
2016-Sep-01 23:31N 55°36' E 012°41'0 0.0
2016-Sep-01 22:31N 55°36' E 012°41'0 0.0
2016-Sep-01 21:31N 55°36' E 012°41'0 0.0
2016-Sep-01 20:31N 55°36' E 012°41'0 0.0
2016-Sep-01 19:31N 55°36' E 012°41'0 0.0
2016-Sep-01 18:31N 55°36' E 012°41'0 0.0
2016-Sep-01 17:31N 55°36' E 012°41'0 0.0
2016-Sep-01 16:31N 55°36' E 012°41'0 0.0
2016-Sep-01 15:31N 55°36' E 012°41'0 0.0
2016-Sep-01 14:31N 55°36' E 012°41'0 0.0
2016-Sep-01 13:31N 55°36' E 012°41'0 0.0
2016-Sep-01 12:31N 55°36' E 012°41'0 0.0
2016-Sep-01 11:31N 55°36' E 012°41'0 0.0
2016-Sep-01 10:31N 55°36' E 012°41'0 0.0
2016-Sep-01 09:33N 55°36' E 012°41'9 9.0
2016-Sep-01 08:34N 55°45' E 012°38'9 8.6
2016-Sep-01 07:31N 55°53' E 012°33'0 0.0
2016-Sep-01 06:31N 55°53' E 012°33'  
Track history (hours):
 
Tides and Currents Weather Stations Pressure Air Temp Water Temp Dewpoint Dewpoint Depression Visibility Wind Speed Wind Dir Waves Ship Positions

Metsaborg

Last reported at 2016-Sep-11 06:19 UTC. Time now 2016-Dec-09 09:46 UTC.
Position N 55°00' E 011°55'.
Warning: this ship's position is months out of date.

Length 12 m.

Type: Port tender. MMSI: 244870551.

Date/timePositionNaut miles runAvg speedWind from/ knotsBaromVisibWave heightAir tempDewpointWater temp
2016-Sep-11 06:19N 55°00' E 011°55'  
2016-Sep-09 00:31N 55°11' E 011°38'0 0.0
2016-Sep-08 23:31N 55°11' E 011°38'0 0.0
2016-Sep-08 22:19N 55°11' E 011°38'0 0.0
2016-Sep-08 21:25N 55°11' E 011°38'13 0.9
2016-Sep-08 06:25N 54°58' E 011°31'0 0.0
2016-Sep-08 05:31N 54°58' E 011°31'0 0.0
2016-Sep-08 04:28N 54°58' E 011°31'0 0.0
2016-Sep-08 03:28N 54°58' E 011°31'0 0.0
2016-Sep-08 02:22N 54°58' E 011°31'0 0.0
2016-Sep-08 01:31N 54°58' E 011°31'0 0.0
2016-Sep-08 00:31N 54°58' E 011°31'0 0.0
2016-Sep-07 00:25N 54°58' E 011°31'0 0.0
2016-Sep-06 23:31N 54°58' E 011°31'0 0.0
2016-Sep-06 22:28N 54°58' E 011°31'0 0.0
2016-Sep-06 21:28N 54°58' E 011°31'0 0.0
2016-Sep-06 20:28N 54°58' E 011°31'0 0.0
2016-Sep-06 19:28N 54°58' E 011°31'  
2016-Sep-02 07:33N 55°27' E 012°36'9 8.7
2016-Sep-02 06:31N 55°36' E 012°41'0 0.0
2016-Sep-02 05:31N 55°36' E 012°41'0 0.0
2016-Sep-02 04:31N 55°36' E 012°41'0 0.0
2016-Sep-02 03:31N 55°36' E 012°41'0 0.0
2016-Sep-02 02:31N 55°36' E 012°41'0 0.0
2016-Sep-02 01:31N 55°36' E 012°41'0 0.0
2016-Sep-02 00:31N 55°36' E 012°41'0 0.0
2016-Sep-01 23:31N 55°36' E 012°41'0 0.0
2016-Sep-01 22:31N 55°36' E 012°41'0 0.0
2016-Sep-01 21:31N 55°36' E 012°41'0 0.0
2016-Sep-01 20:31N 55°36' E 012°41'0 0.0
2016-Sep-01 19:31N 55°36' E 012°41'0 0.0
2016-Sep-01 18:31N 55°36' E 012°41'0 0.0
2016-Sep-01 17:31N 55°36' E 012°41'0 0.0
2016-Sep-01 16:31N 55°36' E 012°41'0 0.0
2016-Sep-01 15:31N 55°36' E 012°41'0 0.0
2016-Sep-01 14:31N 55°36' E 012°41'0 0.0
2016-Sep-01 13:31N 55°36' E 012°41'0 0.0
2016-Sep-01 12:31N 55°36' E 012°41'0 0.0
2016-Sep-01 11:31N 55°36' E 012°41'0 0.0
2016-Sep-01 10:31N 55°36' E 012°41'0 0.0
2016-Sep-01 09:33N 55°36' E 012°41'9 9.0
2016-Sep-01 08:34N 55°45' E 012°38'9 8.6
2016-Sep-01 07:31N 55°53' E 012°33'0 0.0
2016-Sep-01 06:31N 55°53' E 012°33'  

Dump ship's entire track history